createdAt,value
2018-09-17T00:00:58.521Z,12.80
2018-09-17T00:03:27.054Z,12.80
2018-09-17T00:05:55.531Z,12.70
2018-09-17T00:08:23.992Z,12.70
2018-09-17T00:10:52.523Z,12.70
2018-09-17T00:13:20.982Z,12.70
2018-09-17T00:15:49.443Z,12.70
2018-09-17T00:18:17.935Z,12.70
2018-09-17T00:20:46.420Z,12.70
2018-09-17T00:23:14.860Z,12.80
2018-09-17T00:25:43.350Z,12.70
2018-09-17T00:28:11.807Z,12.70
2018-09-17T00:30:40.313Z,12.60
2018-09-17T00:33:08.787Z,12.60
2018-09-17T00:35:37.228Z,12.60
2018-09-17T00:38:05.786Z,12.60
2018-09-17T00:40:34.470Z,12.50
2018-09-17T00:43:02.922Z,12.50
2018-09-17T00:45:31.359Z,12.60
2018-09-17T00:47:59.851Z,12.60
2018-09-17T00:50:28.327Z,12.50
2018-09-17T00:52:56.760Z,12.50
2018-09-17T00:55:25.263Z,12.50
2018-09-17T00:57:53.822Z,12.50
2018-09-17T01:00:22.178Z,12.40
2018-09-17T01:02:50.779Z,12.50
2018-09-17T01:05:19.222Z,12.50
2018-09-17T01:07:47.674Z,12.50
2018-09-17T01:10:16.146Z,12.50
2018-09-17T01:12:44.615Z,12.40
2018-09-17T01:15:13.055Z,12.40
2018-09-17T01:17:41.522Z,12.40
2018-09-17T01:20:10.065Z,12.40
2018-09-17T01:22:38.532Z,12.40
2018-09-17T01:25:07.021Z,12.40
2018-09-17T01:27:35.480Z,12.50
2018-09-17T01:30:04.057Z,12.50
2018-09-17T01:32:32.575Z,12.40
2018-09-17T01:35:01.085Z,12.40
2018-09-17T01:37:29.587Z,12.40
2018-09-17T01:39:58.025Z,12.30
2018-09-17T01:42:26.494Z,12.30
2018-09-17T01:44:54.935Z,12.30
2018-09-17T01:47:23.372Z,12.40
2018-09-17T01:49:51.835Z,12.30
2018-09-17T01:52:20.282Z,12.40
2018-09-17T01:54:48.737Z,12.30
2018-09-17T01:57:17.198Z,12.20
2018-09-17T01:59:45.662Z,12.20
2018-09-17T02:02:14.116Z,12.20
2018-09-17T02:04:43.138Z,12.20
2018-09-17T02:07:11.599Z,12.20
2018-09-17T02:09:41.071Z,12.20
2018-09-17T02:12:13.444Z,12.10
2018-09-17T02:14:42.637Z,12.10
2018-09-17T02:17:11.143Z,12.10
2018-09-17T02:19:40.002Z,12.10
2018-09-17T02:22:09.227Z,12.10
2018-09-17T02:24:37.750Z,12.10
2018-09-17T02:27:06.273Z,12.10
2018-09-17T02:29:34.748Z,12.00
2018-09-17T02:32:03.226Z,12.00
2018-09-17T02:34:31.723Z,12.10
2018-09-17T02:37:00.208Z,12.00
2018-09-17T02:39:28.713Z,12.10
2018-09-17T02:41:57.174Z,12.00
2018-09-17T02:44:25.650Z,12.00
2018-09-17T02:46:54.134Z,11.90
2018-09-17T02:49:22.586Z,11.90
2018-09-17T02:51:51.067Z,11.90
2018-09-17T02:54:19.510Z,11.90
2018-09-17T02:56:48.008Z,11.90
2018-09-17T02:59:16.438Z,11.80
2018-09-17T03:01:44.955Z,11.90
2018-09-17T03:04:13.402Z,11.90
2018-09-17T03:06:41.844Z,11.80
2018-09-17T03:09:10.608Z,11.80
2018-09-17T03:11:39.101Z,11.80
2018-09-17T03:14:07.556Z,11.70
2018-09-17T03:16:46.104Z,11.80
2018-09-17T03:19:14.632Z,11.70
2018-09-17T03:21:43.096Z,11.80
2018-09-17T03:24:11.563Z,11.70
2018-09-17T03:26:40.063Z,11.70
2018-09-17T03:29:08.555Z,11.70
2018-09-17T03:31:37.040Z,11.80
2018-09-17T03:34:05.631Z,11.70
2018-09-17T03:36:34.067Z,11.70
2018-09-17T03:39:02.627Z,11.70
2018-09-17T03:41:31.071Z,11.70
2018-09-17T03:43:59.576Z,11.60
2018-09-17T03:46:28.084Z,11.60
2018-09-17T03:48:56.550Z,11.60
2018-09-17T03:51:25.018Z,11.60
2018-09-17T03:53:53.500Z,11.50
2018-09-17T03:56:21.960Z,11.60
2018-09-17T03:58:50.436Z,11.50
2018-09-17T04:01:18.913Z,11.50
2018-09-17T04:03:47.468Z,11.40
2018-09-17T04:06:15.941Z,11.50
2018-09-17T04:08:44.426Z,11.40
2018-09-17T04:11:12.925Z,11.40
2018-09-17T04:13:41.345Z,11.40
2018-09-17T04:16:09.811Z,11.40
2018-09-17T04:18:38.300Z,11.40
2018-09-17T04:21:06.906Z,11.40
2018-09-17T04:23:37.356Z,11.40
2018-09-17T04:26:08.490Z,11.30
2018-09-17T04:28:37.622Z,11.30
2018-09-17T04:31:06.200Z,11.30
2018-09-17T04:33:42.851Z,11.30
2018-09-17T04:36:12.244Z,11.30
2018-09-17T04:38:40.926Z,11.30
2018-09-17T04:41:09.404Z,11.20
2018-09-17T04:43:37.948Z,11.20
2018-09-17T04:46:06.411Z,11.20
2018-09-17T04:48:34.882Z,11.20
2018-09-17T04:51:03.415Z,11.20
2018-09-17T04:53:31.935Z,11.20
2018-09-17T04:56:00.515Z,11.10
2018-09-17T04:58:28.969Z,11.10
2018-09-17T05:00:57.462Z,11.10
2018-09-17T05:03:25.957Z,11.10
2018-09-17T05:05:54.538Z,11.10
2018-09-17T05:08:23.015Z,11.10
2018-09-17T05:10:51.697Z,11.10
2018-09-17T05:13:20.291Z,11.10
2018-09-17T05:15:48.691Z,11.10
2018-09-17T05:18:17.179Z,11.10
2018-09-17T05:20:45.664Z,11.10
2018-09-17T05:23:14.164Z,11.10
2018-09-17T05:25:42.646Z,11.10
2018-09-17T05:28:11.103Z,11.10
2018-09-17T05:30:39.590Z,11.00
2018-09-17T05:33:08.067Z,11.00
2018-09-17T05:35:36.827Z,11.10
2018-09-17T05:38:05.371Z,11.10
2018-09-17T05:40:33.958Z,11.10
2018-09-17T05:43:02.438Z,11.10
2018-09-17T05:45:30.953Z,11.20
2018-09-17T05:47:59.470Z,11.20
2018-09-17T05:50:28.043Z,11.20
2018-09-17T05:52:56.829Z,11.30
2018-09-17T05:55:25.395Z,11.30
2018-09-17T05:57:53.867Z,11.30
2018-09-17T06:00:22.390Z,11.40
2018-09-17T06:02:57.870Z,11.40
2018-09-17T06:05:26.497Z,11.50
2018-09-17T06:07:54.887Z,11.50
2018-09-17T06:10:23.330Z,11.70
2018-09-17T06:12:51.798Z,11.80
2018-09-17T06:15:20.271Z,11.90
2018-09-17T06:17:48.781Z,12.20
2018-09-17T06:20:17.245Z,12.50
2018-09-17T06:22:45.725Z,12.60
2018-09-17T06:25:14.194Z,12.80
2018-09-17T06:27:42.682Z,13.00
2018-09-17T06:30:11.132Z,13.10
2018-09-17T06:32:39.600Z,13.20
2018-09-17T06:35:08.082Z,13.20
2018-09-17T06:37:36.558Z,13.40
2018-09-17T06:40:05.051Z,13.80
2018-09-17T06:42:33.668Z,14.00
2018-09-17T06:45:02.133Z,14.10
2018-09-17T06:47:30.571Z,14.20
2018-09-17T06:49:59.037Z,14.20
2018-09-17T06:52:27.625Z,14.10
2018-09-17T06:54:56.068Z,14.30
2018-09-17T06:57:24.529Z,14.40
2018-09-17T06:59:53.123Z,14.40
2018-09-17T07:02:21.583Z,14.60
2018-09-17T07:04:50.034Z,14.70
2018-09-17T07:07:18.499Z,14.90
2018-09-17T07:09:46.965Z,15.00
2018-09-17T07:12:15.427Z,15.30
2018-09-17T07:14:43.878Z,15.40
2018-09-17T07:17:12.374Z,15.60
2018-09-17T07:19:40.823Z,15.80
2018-09-17T07:22:09.304Z,15.80
2018-09-17T07:24:37.810Z,15.80
2018-09-17T07:27:06.266Z,16.00
2018-09-17T07:29:34.734Z,16.20
2018-09-17T07:32:03.567Z,16.30
2018-09-17T07:34:32.042Z,16.60
2018-09-17T07:37:00.500Z,16.90
2018-09-17T07:39:28.948Z,17.10
2018-09-17T07:41:57.451Z,17.30
2018-09-17T07:44:25.900Z,17.70
2018-09-17T07:46:54.377Z,18.30
2018-09-17T07:49:22.802Z,18.30
2018-09-17T07:51:51.338Z,18.50
2018-09-17T07:54:19.817Z,18.60
2018-09-17T07:56:48.295Z,19.40
2018-09-17T07:59:16.807Z,20.90
2018-09-17T08:01:45.339Z,22.60
2018-09-17T08:04:13.770Z,25.00
2018-09-17T08:06:42.251Z,26.30
2018-09-17T08:09:12.743Z,27.90
2018-09-17T08:11:41.864Z,28.10
2018-09-17T08:14:10.467Z,28.60
2018-09-17T08:16:38.959Z,28.90
2018-09-17T08:19:07.411Z,29.60
2018-09-17T08:21:35.878Z,30.70
2018-09-17T08:24:04.383Z,32.00
2018-09-17T08:26:32.857Z,30.40
2018-09-17T08:29:01.294Z,30.80
2018-09-17T08:31:29.739Z,31.20
2018-09-17T08:33:58.541Z,30.80
2018-09-17T08:36:27.014Z,32.00
2018-09-17T08:38:55.509Z,32.10
2018-09-17T08:41:23.962Z,32.80
2018-09-17T08:43:52.474Z,32.70
2018-09-17T08:46:20.931Z,34.60
2018-09-17T08:48:49.389Z,35.80
2018-09-17T08:51:17.903Z,35.80
2018-09-17T08:53:46.371Z,35.40
2018-09-17T08:56:22.055Z,33.80
2018-09-17T08:58:55.850Z,32.00
2018-09-17T09:01:29.360Z,33.30
2018-09-17T09:04:03.376Z,34.20
2018-09-17T09:06:37.239Z,32.90
2018-09-17T09:09:08.657Z,33.00
2018-09-17T09:11:42.399Z,34.30
2018-09-17T09:14:16.049Z,34.70
2018-09-17T09:16:44.501Z,33.90
2018-09-17T09:19:12.979Z,33.10
2018-09-17T09:21:41.452Z,32.70
2018-09-17T09:24:09.907Z,34.00
2018-09-17T09:26:38.404Z,33.70
2018-09-17T09:29:07.056Z,34.30
2018-09-17T09:31:35.531Z,33.90
2018-09-17T09:34:04.013Z,34.50
2018-09-17T09:36:32.458Z,36.20
2018-09-17T09:39:00.941Z,37.10
2018-09-17T09:41:29.407Z,37.10
2018-09-17T09:43:57.832Z,37.40
2018-09-17T09:46:26.313Z,37.30
2018-09-17T09:48:54.745Z,37.20
2018-09-17T09:51:23.204Z,36.80
2018-09-17T09:53:51.690Z,37.80
2018-09-17T09:56:20.132Z,37.00
2018-09-17T09:58:48.599Z,36.60
2018-09-17T10:01:22.316Z,36.80
2018-09-17T10:03:56.186Z,36.80
2018-09-17T10:06:24.683Z,37.40
2018-09-17T10:08:58.519Z,37.40
2018-09-17T10:11:32.383Z,37.20
2018-09-17T10:14:06.155Z,38.20
2018-09-17T10:16:35.478Z,37.70
2018-09-17T10:19:09.276Z,37.90
2018-09-17T10:21:37.815Z,37.60
2018-09-17T10:24:06.376Z,37.90
2018-09-17T10:26:34.903Z,39.10
2018-09-17T10:29:03.502Z,38.50
2018-09-17T10:31:32.159Z,39.80
2018-09-17T10:34:00.675Z,38.60
2018-09-17T10:36:29.119Z,37.80
2018-09-17T10:38:57.628Z,38.60
2018-09-17T10:41:26.097Z,38.20
2018-09-17T10:43:54.634Z,37.80
2018-09-17T10:46:23.070Z,38.10
2018-09-17T10:48:51.584Z,36.30
2018-09-17T10:51:20.043Z,36.20
2018-09-17T10:53:48.481Z,36.00
2018-09-17T10:56:17.019Z,34.50
2018-09-17T10:58:45.632Z,33.40
2018-09-17T11:01:14.043Z,32.30
2018-09-17T11:03:42.743Z,32.50
2018-09-17T11:06:11.475Z,32.50
2018-09-17T11:08:40.132Z,32.90
2018-09-17T11:11:08.736Z,32.80
2018-09-17T11:13:37.358Z,32.40
2018-09-17T11:16:06.071Z,31.70
2018-09-17T11:18:34.673Z,31.60
2018-09-17T11:21:03.290Z,31.50
2018-09-17T11:23:32.023Z,30.80
2018-09-17T11:26:00.762Z,30.70
2018-09-17T11:28:29.356Z,30.10
2018-09-17T11:30:57.872Z,29.60
2018-09-17T11:33:26.509Z,29.60
2018-09-17T11:35:55.082Z,29.70
2018-09-17T11:38:23.708Z,29.60
2018-09-17T11:40:52.348Z,29.70
2018-09-17T11:43:21.042Z,29.00
2018-09-17T11:45:49.650Z,29.40
2018-09-17T11:48:18.403Z,29.10
2018-09-17T11:50:46.873Z,29.10
2018-09-17T11:53:15.338Z,28.50
2018-09-17T11:55:43.792Z,28.60
2018-09-17T11:58:12.251Z,28.20
2018-09-17T12:00:45.981Z,27.60
2018-09-17T12:03:19.891Z,27.60
2018-09-17T12:05:53.792Z,27.90
2018-09-17T12:08:22.393Z,28.20
2018-09-17T12:10:50.830Z,28.50
2018-09-17T12:13:19.283Z,28.50
2018-09-17T12:15:47.734Z,28.30
2018-09-17T12:18:16.286Z,28.40
2018-09-17T12:20:44.745Z,28.30
2018-09-17T12:23:13.218Z,28.30
2018-09-17T12:25:41.698Z,28.50
2018-09-17T12:28:10.145Z,28.60
2018-09-17T12:30:38.742Z,28.50
2018-09-17T12:33:07.303Z,28.40
2018-09-17T12:35:35.827Z,28.60
2018-09-17T12:38:04.419Z,28.50
2018-09-17T12:40:32.932Z,28.40
2018-09-17T12:43:01.420Z,28.50
2018-09-17T12:45:29.878Z,28.50
2018-09-17T12:47:58.384Z,28.30
2018-09-17T12:50:26.875Z,28.20
2018-09-17T12:52:55.424Z,28.50
2018-09-17T12:55:23.870Z,28.90
2018-09-17T12:57:52.338Z,28.80
2018-09-17T13:00:20.796Z,28.80
2018-09-17T13:02:49.262Z,28.90
2018-09-17T13:05:17.829Z,29.00
2018-09-17T13:07:46.309Z,29.00
2018-09-17T13:10:14.753Z,28.40
2018-09-17T13:12:43.274Z,28.30
2018-09-17T13:15:11.718Z,28.40
2018-09-17T13:17:40.196Z,28.40
2018-09-17T13:20:09.278Z,28.10
2018-09-17T13:22:37.836Z,28.20
2018-09-17T13:25:06.315Z,28.50
2018-09-17T13:27:34.790Z,28.80
2018-09-17T13:30:03.271Z,28.90
2018-09-17T13:32:31.759Z,28.50
2018-09-17T13:35:00.242Z,27.70
2018-09-17T13:37:28.721Z,27.40
2018-09-17T13:39:57.214Z,27.40
2018-09-17T13:42:25.946Z,27.70
2018-09-17T13:44:54.467Z,27.90
2018-09-17T13:47:23.174Z,27.90
2018-09-17T13:49:52.075Z,28.00
2018-09-17T13:52:21.317Z,28.30
2018-09-17T13:54:49.831Z,28.30
2018-09-17T13:57:18.318Z,28.40
2018-09-17T13:59:46.843Z,28.50
2018-09-17T14:02:15.292Z,28.20
2018-09-17T14:04:43.816Z,28.30
2018-09-17T14:07:12.274Z,28.10
2018-09-17T14:09:41.669Z,28.10
2018-09-17T14:12:10.143Z,28.10
2018-09-17T14:14:38.674Z,27.80
2018-09-17T14:17:07.168Z,27.50
2018-09-17T14:19:35.615Z,27.60
2018-09-17T14:22:04.219Z,27.70
2018-09-17T14:24:32.751Z,27.80
2018-09-17T14:27:01.232Z,27.60
2018-09-17T14:29:29.800Z,27.30
2018-09-17T14:32:03.658Z,27.10
2018-09-17T14:34:32.152Z,26.70
2018-09-17T14:37:00.596Z,26.70
2018-09-17T14:39:29.192Z,27.00
2018-09-17T14:41:57.818Z,27.30
2018-09-17T14:44:26.347Z,27.20
2018-09-17T14:46:54.935Z,27.60
2018-09-17T14:49:23.405Z,27.30
2018-09-17T14:51:52.237Z,27.40
2018-09-17T14:54:20.722Z,27.20
2018-09-17T14:56:49.291Z,26.90
2018-09-17T14:59:17.841Z,27.00
2018-09-17T15:01:46.823Z,27.20
2018-09-17T15:04:15.316Z,27.20
2018-09-17T15:06:43.878Z,27.30
2018-09-17T15:09:12.350Z,27.40
2018-09-17T15:11:40.954Z,27.30
2018-09-17T15:14:10.161Z,27.40
2018-09-17T15:16:38.595Z,27.40
2018-09-17T15:19:07.098Z,27.50
2018-09-17T15:21:35.877Z,27.80
2018-09-17T15:24:04.422Z,27.70
2018-09-17T15:26:32.968Z,27.40
2018-09-17T15:29:01.435Z,27.50
2018-09-17T15:31:29.976Z,27.40
2018-09-17T15:33:58.450Z,27.20
2018-09-17T15:36:26.927Z,26.80
2018-09-17T15:38:55.547Z,26.80
2018-09-17T15:41:24.190Z,26.80
2018-09-17T15:43:52.693Z,26.70
2018-09-17T15:46:21.224Z,26.70
2018-09-17T15:48:49.856Z,26.70
2018-09-17T15:51:18.375Z,26.60
2018-09-17T15:53:46.869Z,26.60
2018-09-17T15:56:15.874Z,26.40
2018-09-17T15:58:44.306Z,26.30
2018-09-17T16:01:13.005Z,26.20
2018-09-17T16:03:41.464Z,26.10
2018-09-17T16:06:09.955Z,26.20
2018-09-17T16:08:38.458Z,26.10
2018-09-17T16:11:07.141Z,26.10
2018-09-17T16:13:35.673Z,26.10
2018-09-17T16:16:04.276Z,26.10
2018-09-17T16:18:32.800Z,26.00
2018-09-17T16:21:01.287Z,25.90
2018-09-17T16:23:29.881Z,25.90
2018-09-17T16:25:58.439Z,25.80
2018-09-17T16:28:26.915Z,25.80
2018-09-17T16:30:55.535Z,25.90
2018-09-17T16:33:24.132Z,25.80
2018-09-17T16:35:52.590Z,25.70
2018-09-17T16:38:21.134Z,25.50
2018-09-17T16:40:49.695Z,25.40
2018-09-17T16:43:18.108Z,25.40
2018-09-17T16:45:46.625Z,25.20
2018-09-17T16:48:15.097Z,25.10
2018-09-17T16:50:43.558Z,25.00
2018-09-17T16:53:12.329Z,24.90
2018-09-17T16:55:40.745Z,24.70
2018-09-17T16:58:09.552Z,24.60
2018-09-17T17:00:38.081Z,24.50
2018-09-17T17:03:06.550Z,24.40
2018-09-17T17:05:35.034Z,24.20
2018-09-17T17:08:04.662Z,24.10
2018-09-17T17:10:33.333Z,24.00
2018-09-17T17:13:01.803Z,23.80
2018-09-17T17:15:30.334Z,23.70
2018-09-17T17:17:58.814Z,23.60
2018-09-17T17:20:27.262Z,23.50
2018-09-17T17:22:55.783Z,23.40
2018-09-17T17:25:24.234Z,23.20
2018-09-17T17:27:52.781Z,23.10
2018-09-17T17:30:21.310Z,23.00
2018-09-17T17:32:49.915Z,22.80
2018-09-17T17:35:18.478Z,22.60
2018-09-17T17:37:46.947Z,22.50
2018-09-17T17:40:15.507Z,22.40
2018-09-17T17:42:44.000Z,22.30
2018-09-17T17:45:12.463Z,22.20
2018-09-17T17:47:41.146Z,22.10
2018-09-17T17:50:09.706Z,22.00
2018-09-17T17:52:38.408Z,21.90
2018-09-17T17:55:07.181Z,21.70
2018-09-17T17:57:35.758Z,21.60
2018-09-17T18:00:04.907Z,21.50
2018-09-17T18:02:33.507Z,21.30
2018-09-17T18:05:02.083Z,21.20
2018-09-17T18:07:30.614Z,21.10
2018-09-17T18:09:59.065Z,21.00
2018-09-17T18:12:27.614Z,20.90
2018-09-17T18:14:56.153Z,20.80
2018-09-17T18:17:24.661Z,20.70
2018-09-17T18:19:53.154Z,20.60
2018-09-17T18:22:21.648Z,20.60
2018-09-17T18:24:50.104Z,20.50
2018-09-17T18:27:18.588Z,20.50
2018-09-17T18:29:47.087Z,20.40
2018-09-17T18:32:15.563Z,20.40
2018-09-17T18:34:44.378Z,20.40
2018-09-17T18:37:13.056Z,20.40
2018-09-17T18:39:41.694Z,20.40
2018-09-17T18:42:11.095Z,20.40
2018-09-17T18:44:39.575Z,20.40
2018-09-17T18:47:08.070Z,20.40
2018-09-17T18:49:36.925Z,20.40
2018-09-17T18:52:05.466Z,20.40
2018-09-17T18:54:33.968Z,20.50
2018-09-17T18:57:02.534Z,20.50
2018-09-17T18:59:30.955Z,20.50
2018-09-17T19:01:59.448Z,20.50
2018-09-17T19:04:27.897Z,20.60
2018-09-17T19:06:56.366Z,20.60
2018-09-17T19:09:30.302Z,20.50
2018-09-17T19:11:58.912Z,20.50
2018-09-17T19:14:32.729Z,20.40
2018-09-17T19:17:05.560Z,20.30
2018-09-17T19:19:33.922Z,20.00
2018-09-17T19:22:07.822Z,19.70
2018-09-17T19:24:36.079Z,19.50
2018-09-17T19:27:04.575Z,19.30
2018-09-17T19:29:33.099Z,19.20
2018-09-17T19:32:01.648Z,19.10
2018-09-17T19:34:30.115Z,19.00
2018-09-17T19:37:04.004Z,18.80
2018-09-17T19:39:37.756Z,18.70
2018-09-17T19:42:06.290Z,18.50
2018-09-17T19:44:34.709Z,18.40
2018-09-17T19:47:03.161Z,18.20
2018-09-17T19:49:31.694Z,18.00
2018-09-17T19:52:05.404Z,17.90
2018-09-17T19:54:33.925Z,17.80
2018-09-17T19:57:06.282Z,17.70
2018-09-17T19:59:39.972Z,17.70
2018-09-17T20:02:08.525Z,17.60
2018-09-17T20:04:42.270Z,17.40
2018-09-17T20:07:10.754Z,17.20
2018-09-17T20:09:39.350Z,17.10
2018-09-17T20:12:07.867Z,17.00
2018-09-17T20:14:36.390Z,17.00
2018-09-17T20:17:05.004Z,16.90
2018-09-17T20:19:33.613Z,16.80
2018-09-17T20:22:02.122Z,16.80
2018-09-17T20:24:30.603Z,16.70
2018-09-17T20:26:59.110Z,16.70
2018-09-17T20:29:27.566Z,16.60
2018-09-17T20:31:56.052Z,16.60
2018-09-17T20:34:24.530Z,16.60
2018-09-17T20:36:53.043Z,16.50
2018-09-17T20:39:21.523Z,16.40
2018-09-17T20:41:50.002Z,16.30
2018-09-17T20:44:18.486Z,16.20
2018-09-17T20:46:46.933Z,16.20
2018-09-17T20:49:15.570Z,16.10
2018-09-17T20:51:45.019Z,16.10
2018-09-17T20:54:13.520Z,16.00
2018-09-17T20:56:42.036Z,16.00
2018-09-17T20:59:10.503Z,16.00
2018-09-17T21:01:39.019Z,15.90
2018-09-17T21:04:07.602Z,15.70
2018-09-17T21:06:36.167Z,15.70
2018-09-17T21:09:07.726Z,15.70
2018-09-17T21:11:36.191Z,15.70
2018-09-17T21:14:11.171Z,15.60
2018-09-17T21:16:39.962Z,15.50
2018-09-17T21:19:08.540Z,15.50
2018-09-17T21:21:36.976Z,15.40
2018-09-17T21:24:05.469Z,15.30
2018-09-17T21:26:33.958Z,15.30
2018-09-17T21:29:02.495Z,15.20
2018-09-17T21:31:30.946Z,15.20
2018-09-17T21:33:59.402Z,15.20
2018-09-17T21:36:27.885Z,15.20
2018-09-17T21:38:56.339Z,15.20
2018-09-17T21:41:24.794Z,15.10
2018-09-17T21:43:53.281Z,15.00
2018-09-17T21:46:21.770Z,15.00
2018-09-17T21:48:50.230Z,14.90
2018-09-17T21:51:18.724Z,14.90
2018-09-17T21:53:47.189Z,14.90
2018-09-17T21:56:15.662Z,15.10
2018-09-17T21:58:44.126Z,14.80
2018-09-17T22:01:16.803Z,14.90
2018-09-17T22:03:45.282Z,14.90
2018-09-17T22:06:13.738Z,14.80
2018-09-17T22:08:43.223Z,14.70
2018-09-17T22:11:11.870Z,14.60
2018-09-17T22:13:40.351Z,14.70
2018-09-17T22:16:08.819Z,14.80
2018-09-17T22:18:37.282Z,14.70
2018-09-17T22:21:05.750Z,14.60
2018-09-17T22:23:34.259Z,14.60
2018-09-17T22:26:02.787Z,14.50
2018-09-17T22:28:31.312Z,14.50
2018-09-17T22:30:59.768Z,14.40
2018-09-17T22:33:28.267Z,14.40
2018-09-17T22:35:56.766Z,14.40
2018-09-17T22:38:25.213Z,14.30
2018-09-17T22:40:53.809Z,14.20
2018-09-17T22:43:22.267Z,14.20
2018-09-17T22:45:50.777Z,14.20
2018-09-17T22:48:19.191Z,14.10
2018-09-17T22:50:47.730Z,14.10
2018-09-17T22:53:16.188Z,14.10
2018-09-17T22:55:44.682Z,14.10
2018-09-17T22:58:13.136Z,14.00
2018-09-17T23:00:42.351Z,14.00
2018-09-17T23:03:10.823Z,14.00
2018-09-17T23:05:39.326Z,14.00
2018-09-17T23:08:07.799Z,13.90
2018-09-17T23:10:36.292Z,13.80
2018-09-17T23:13:04.803Z,13.80
2018-09-17T23:15:33.290Z,13.70
2018-09-17T23:18:01.730Z,13.70
2018-09-17T23:20:30.186Z,13.70
2018-09-17T23:22:58.667Z,13.70
2018-09-17T23:25:27.134Z,13.70
2018-09-17T23:27:55.621Z,13.70
2018-09-17T23:30:24.083Z,13.70
2018-09-17T23:32:52.558Z,13.70
2018-09-17T23:35:21.015Z,13.90
2018-09-17T23:37:49.478Z,13.90
2018-09-17T23:40:17.933Z,13.90
2018-09-17T23:42:46.428Z,13.70
2018-09-17T23:45:14.887Z,13.70
2018-09-17T23:47:43.357Z,13.60
2018-09-17T23:50:11.839Z,13.60
2018-09-17T23:52:40.311Z,13.60
2018-09-17T23:55:08.818Z,13.60
2018-09-17T23:57:37.282Z,13.60
